createdAt,value
2022-11-09T00:05:58.439Z,6.90
2022-11-09T00:09:19.766Z,6.90
2022-11-09T00:17:01.582Z,6.80
2022-11-09T00:19:44.227Z,6.70
2022-11-09T00:26:33.720Z,6.70
2022-11-09T00:29:08.473Z,6.70
2022-11-09T00:31:44.459Z,6.80
2022-11-09T00:34:18.824Z,6.90
2022-11-09T00:36:53.076Z,6.90
2022-11-09T00:39:27.415Z,7.00
2022-11-09T00:50:27.123Z,7.00
2022-11-09T00:53:08.174Z,7.00
2022-11-09T01:05:07.514Z,7.10
2022-11-09T01:07:45.810Z,7.10
2022-11-09T01:14:32.701Z,7.00
2022-11-09T01:18:24.269Z,7.00
2022-11-09T01:25:59.769Z,7.10
2022-11-09T01:32:39.349Z,6.90
2022-11-09T01:40:31.485Z,7.10
2022-11-09T01:43:45.176Z,7.00
2022-11-09T01:51:12.013Z,7.10
2022-11-09T01:57:57.722Z,7.10
2022-11-09T02:00:52.375Z,7.00
2022-11-09T02:11:50.808Z,7.10
2022-11-09T02:15:08.334Z,7.10
2022-11-09T02:21:56.578Z,7.10
2022-11-09T02:28:50.610Z,7.10
2022-11-09T02:31:35.254Z,7.20
2022-11-09T02:34:14.421Z,7.30
2022-11-09T02:36:49.380Z,7.30
2022-11-09T02:39:28.394Z,7.30
2022-11-09T02:46:25.189Z,7.50
2022-11-09T02:50:01.528Z,7.50
2022-11-09T02:56:57.857Z,7.60
2022-11-09T02:59:38.213Z,7.60
2022-11-09T03:02:20.436Z,7.60
2022-11-09T03:05:02.212Z,7.60
2022-11-09T03:07:36.597Z,7.60
2022-11-09T03:10:11.268Z,7.60
2022-11-09T03:12:47.026Z,7.60
2022-11-09T03:19:32.699Z,7.60
2022-11-09T03:27:01.695Z,7.60
2022-11-09T03:29:51.773Z,7.70
2022-11-09T03:36:38.757Z,7.60
2022-11-09T03:39:37.945Z,7.70
2022-11-09T03:42:17.212Z,7.70
2022-11-09T03:44:57.891Z,7.80
2022-11-09T03:52:31.778Z,7.80
2022-11-09T03:55:26.266Z,7.80
2022-11-09T03:58:14.344Z,7.80
2022-11-09T04:01:21.588Z,7.80
2022-11-09T04:04:02.373Z,7.80
2022-11-09T04:06:36.653Z,7.70
2022-11-09T04:09:20.477Z,7.80
2022-11-09T04:11:54.725Z,7.90
2022-11-09T04:14:55.890Z,7.80
2022-11-09T04:17:40.077Z,7.80
2022-11-09T04:20:14.457Z,7.90
2022-11-09T04:22:57.495Z,7.90
2022-11-09T04:25:35.819Z,7.90
2022-11-09T04:28:14.581Z,7.90
2022-11-09T04:30:48.877Z,7.90
2022-11-09T04:33:28.051Z,7.90
2022-11-09T04:36:09.485Z,7.90
2022-11-09T04:38:44.677Z,7.90
2022-11-09T04:41:20.426Z,7.90
2022-11-09T04:44:02.610Z,8.00
2022-11-09T04:46:36.912Z,7.90
2022-11-09T04:49:12.749Z,7.90
2022-11-09T04:51:50.536Z,7.90
2022-11-09T04:54:26.451Z,7.90
2022-11-09T04:57:02.450Z,7.90
2022-11-09T04:59:56.116Z,7.90
2022-11-09T05:03:02.443Z,7.90
2022-11-09T05:05:48.549Z,7.80
2022-11-09T05:08:26.667Z,7.80
2022-11-09T05:11:20.144Z,7.80
2022-11-09T05:14:08.492Z,7.90
2022-11-09T05:17:20.008Z,7.90
2022-11-09T05:19:56.471Z,7.90
2022-11-09T05:23:00.082Z,7.90
2022-11-09T05:25:34.704Z,7.90
2022-11-09T05:28:26.398Z,7.90
2022-11-09T05:31:14.410Z,7.90
2022-11-09T05:33:51.513Z,8.00
2022-11-09T05:36:27.836Z,8.10
2022-11-09T05:39:03.748Z,8.10
2022-11-09T05:41:38.004Z,8.10
2022-11-09T05:44:12.470Z,8.20
2022-11-09T05:48:02.436Z,8.30
2022-11-09T05:51:03.300Z,8.30
2022-11-09T05:54:03.348Z,8.40
2022-11-09T05:56:56.501Z,8.40
2022-11-09T05:59:32.452Z,8.60
2022-11-09T06:02:23.494Z,8.50
2022-11-09T06:05:25.927Z,8.70
2022-11-09T06:08:31.956Z,8.70
2022-11-09T06:11:13.163Z,8.60
2022-11-09T06:14:02.526Z,8.50
2022-11-09T06:16:50.506Z,8.50
2022-11-09T06:19:44.057Z,8.40
2022-11-09T06:22:38.048Z,8.30
2022-11-09T06:29:25.352Z,8.30
2022-11-09T06:31:59.672Z,8.30
2022-11-09T06:34:33.978Z,8.30
2022-11-09T06:37:08.538Z,8.30
2022-11-09T06:39:44.493Z,8.30
2022-11-09T06:42:26.526Z,8.30
2022-11-09T06:45:02.361Z,8.20
2022-11-09T06:47:38.550Z,8.30
2022-11-09T06:50:13.217Z,8.30
2022-11-09T06:52:47.517Z,8.20
2022-11-09T06:55:21.813Z,8.30
2022-11-09T06:57:56.542Z,8.20
2022-11-09T07:00:34.354Z,8.20
2022-11-09T07:03:16.236Z,8.30
2022-11-09T07:05:53.166Z,8.20
2022-11-09T07:08:27.401Z,8.20
2022-11-09T07:11:05.934Z,8.30
2022-11-09T07:13:44.477Z,8.30
2022-11-09T07:16:20.285Z,8.20
2022-11-09T07:18:54.540Z,8.30
2022-11-09T07:21:32.612Z,8.30
2022-11-09T07:24:08.936Z,8.30
2022-11-09T07:26:56.514Z,8.30
2022-11-09T07:29:36.205Z,8.30
2022-11-09T07:32:16.134Z,8.30
2022-11-09T07:34:50.530Z,8.30
2022-11-09T07:37:26.518Z,8.30
2022-11-09T07:40:00.775Z,8.40
2022-11-09T07:42:38.417Z,8.40
2022-11-09T07:45:13.009Z,8.50
2022-11-09T07:47:57.484Z,8.40
2022-11-09T07:50:50.515Z,8.50
2022-11-09T07:53:25.071Z,8.70
2022-11-09T07:56:04.686Z,8.80
2022-11-09T07:58:44.435Z,8.70
2022-11-09T08:01:20.560Z,8.80
2022-11-09T08:03:56.262Z,8.60
2022-11-09T08:06:32.673Z,8.60
2022-11-09T08:09:06.991Z,8.60
2022-11-09T08:11:44.593Z,8.60
2022-11-09T08:14:19.068Z,8.70
2022-11-09T08:17:08.468Z,8.70
2022-11-09T08:19:44.079Z,8.80
2022-11-09T08:26:50.022Z,8.90
2022-11-09T08:29:32.625Z,9.10
2022-11-09T08:32:20.524Z,9.30
2022-11-09T08:39:08.348Z,9.30
2022-11-09T08:42:08.073Z,9.30
2022-11-09T08:44:44.672Z,9.30
2022-11-09T08:48:08.214Z,9.30
2022-11-09T08:51:49.779Z,9.30
2022-11-09T08:54:28.090Z,9.40
2022-11-09T08:57:02.511Z,9.40
2022-11-09T09:00:02.311Z,9.40
2022-11-09T09:06:42.208Z,9.60
2022-11-09T09:10:11.082Z,9.70
2022-11-09T09:12:47.183Z,9.70
2022-11-09T09:16:11.233Z,9.70
2022-11-09T09:23:55.958Z,9.80
2022-11-09T09:26:56.290Z,9.90
2022-11-09T09:30:48.569Z,10.20
2022-11-09T09:38:21.956Z,10.30
2022-11-09T09:50:02.710Z,10.40
2022-11-09T09:53:34.526Z,10.50
2022-11-09T09:56:32.059Z,10.50
2022-11-09T09:59:33.601Z,10.70
2022-11-09T10:06:44.456Z,11.10
2022-11-09T10:10:14.277Z,11.30
2022-11-09T10:17:25.322Z,12.00
2022-11-09T10:24:28.585Z,12.50
2022-11-09T10:27:24.331Z,12.70
2022-11-09T10:34:20.360Z,13.10
2022-11-09T10:38:24.677Z,13.00
2022-11-09T10:41:31.344Z,13.40
2022-11-09T10:45:01.866Z,13.40
2022-11-09T10:51:46.581Z,13.50
2022-11-09T10:58:35.420Z,13.40
2022-11-09T11:05:41.471Z,13.70
2022-11-09T11:13:38.532Z,13.70
2022-11-09T11:20:34.430Z,13.70
2022-11-09T11:24:20.193Z,13.90
2022-11-09T11:27:07.877Z,13.90
2022-11-09T11:33:58.909Z,13.80
2022-11-09T11:41:35.824Z,13.70
2022-11-09T12:19:52.809Z,13.40
2022-11-09T12:23:22.102Z,13.70
2022-11-09T12:26:23.843Z,13.70
2022-11-09T12:29:17.211Z,13.70
2022-11-09T12:32:29.431Z,13.80
2022-11-09T12:46:27.520Z,13.70
2022-11-09T12:52:29.264Z,13.90
2022-11-09T12:55:14.531Z,13.90
2022-11-09T12:59:02.241Z,14.00
2022-11-09T13:06:15.243Z,14.20
2022-11-09T13:13:22.940Z,13.90
2022-11-09T13:20:55.970Z,13.70
2022-11-09T13:24:39.662Z,13.50
2022-11-09T13:32:02.832Z,13.50
2022-11-09T13:34:46.575Z,13.60
2022-11-09T13:37:58.844Z,13.40
2022-11-09T13:41:32.534Z,13.50
2022-11-09T13:44:50.295Z,13.40
2022-11-09T13:51:47.779Z,13.30
2022-11-09T13:59:17.677Z,13.10
2022-11-09T14:01:54.374Z,13.10
2022-11-09T14:08:44.796Z,13.10
2022-11-09T14:12:01.172Z,13.00
2022-11-09T14:14:56.985Z,12.90
2022-11-09T14:17:40.667Z,12.90
2022-11-09T14:24:32.783Z,12.90
2022-11-09T14:27:26.788Z,12.90
2022-11-09T14:34:18.085Z,12.80
2022-11-09T14:40:58.617Z,12.80
2022-11-09T14:47:48.820Z,12.60
2022-11-09T14:51:40.490Z,12.50
2022-11-09T14:58:31.006Z,12.40
2022-11-09T15:05:36.627Z,12.20
2022-11-09T15:08:21.242Z,12.10
2022-11-09T15:10:55.987Z,12.10
2022-11-09T15:13:36.733Z,12.00
2022-11-09T15:16:35.969Z,12.00
2022-11-09T15:19:24.210Z,12.00
2022-11-09T15:21:58.820Z,11.90
2022-11-09T15:24:47.811Z,11.90
2022-11-09T15:27:34.524Z,11.80
2022-11-09T15:30:36.434Z,11.80
2022-11-09T15:33:25.507Z,11.80
2022-11-09T15:40:14.397Z,11.70
2022-11-09T15:47:10.643Z,11.70
2022-11-09T15:49:46.437Z,11.70
2022-11-09T15:52:20.805Z,11.60
2022-11-09T15:54:55.361Z,11.50
2022-11-09T15:57:38.970Z,11.50
2022-11-09T16:00:20.817Z,11.40
2022-11-09T16:03:21.957Z,11.30
2022-11-09T16:06:32.677Z,11.20
2022-11-09T16:09:44.763Z,11.20
2022-11-09T16:13:49.051Z,11.30
2022-11-09T16:17:14.193Z,11.30
2022-11-09T16:20:05.193Z,11.30
2022-11-09T16:23:38.271Z,11.20
2022-11-09T16:26:32.810Z,11.20
2022-11-09T16:29:08.893Z,11.20
2022-11-09T16:35:50.501Z,11.20
2022-11-09T16:38:25.042Z,11.20
2022-11-09T16:41:05.329Z,11.20
2022-11-09T16:43:39.971Z,11.20
2022-11-09T16:46:21.239Z,11.20
2022-11-09T16:48:58.128Z,11.20
2022-11-09T16:51:40.772Z,11.10
2022-11-09T16:54:50.521Z,11.20
2022-11-09T16:57:26.816Z,11.10
2022-11-09T17:00:03.712Z,11.10
2022-11-09T17:02:38.052Z,11.10
2022-11-09T17:05:14.970Z,11.10
2022-11-09T17:07:54.774Z,11.10
2022-11-09T17:10:47.387Z,11.10
2022-11-09T17:13:21.524Z,11.10
2022-11-09T17:15:55.803Z,11.10
2022-11-09T17:18:44.979Z,11.10
2022-11-09T17:21:30.042Z,11.10
2022-11-09T17:24:29.128Z,11.10
2022-11-09T17:27:10.423Z,11.10
2022-11-09T17:30:05.015Z,11.10
2022-11-09T17:32:46.379Z,11.00
2022-11-09T17:35:21.329Z,11.00
2022-11-09T17:38:38.473Z,11.00
2022-11-09T17:45:26.676Z,11.00
2022-11-09T17:53:26.572Z,11.00
2022-11-09T17:56:44.672Z,11.00
2022-11-09T17:59:21.647Z,11.00
2022-11-09T18:02:22.720Z,10.90
2022-11-09T18:09:50.579Z,10.90
2022-11-09T18:12:39.898Z,10.90
2022-11-09T18:15:27.082Z,10.90
2022-11-09T18:18:05.924Z,10.90
2022-11-09T18:21:44.588Z,10.90
2022-11-09T18:24:21.244Z,10.90
2022-11-09T18:26:57.055Z,10.80
2022-11-09T18:29:33.599Z,10.80
2022-11-09T18:33:04.362Z,10.80
2022-11-09T18:36:11.453Z,10.80
2022-11-09T18:39:59.784Z,10.80
2022-11-09T18:43:09.053Z,10.70
2022-11-09T18:45:45.451Z,10.70
2022-11-09T18:49:10.163Z,10.70
2022-11-09T18:52:50.540Z,10.60
2022-11-09T18:55:26.117Z,10.60
2022-11-09T19:02:14.626Z,10.60
2022-11-09T19:04:58.796Z,10.60
2022-11-09T19:08:02.830Z,10.60
2022-11-09T19:14:48.665Z,10.60
2022-11-09T19:17:33.439Z,10.60
2022-11-09T19:25:04.178Z,10.60
2022-11-09T19:29:11.557Z,10.50
2022-11-09T19:33:01.122Z,10.50
2022-11-09T19:36:28.196Z,10.50
2022-11-09T19:38:51.280Z,10.50
2022-11-09T19:42:04.844Z,10.50
2022-11-09T19:44:58.034Z,10.50
2022-11-09T19:47:32.884Z,10.60
2022-11-09T19:50:10.283Z,10.50
2022-11-09T19:52:57.574Z,10.60
2022-11-09T19:55:33.587Z,10.60
2022-11-09T19:58:34.503Z,10.50
2022-11-09T20:01:12.055Z,10.50
2022-11-09T20:04:10.243Z,10.60
2022-11-09T20:06:47.369Z,10.60
2022-11-09T20:09:52.094Z,10.60
2022-11-09T20:13:26.541Z,10.60
2022-11-09T20:17:03.741Z,10.60
2022-11-09T20:23:58.978Z,10.60
2022-11-09T20:27:21.255Z,10.60
2022-11-09T20:34:09.800Z,10.60
2022-11-09T20:37:51.600Z,10.60
2022-11-09T20:41:00.594Z,10.60
2022-11-09T20:48:54.186Z,10.60
2022-11-09T20:55:58.424Z,10.60
2022-11-09T20:58:45.495Z,10.60
2022-11-09T21:01:46.205Z,10.60
2022-11-09T21:04:33.411Z,10.50
2022-11-09T21:07:07.671Z,10.50
2022-11-09T21:09:45.294Z,10.50
2022-11-09T21:12:24.604Z,10.50
2022-11-09T21:15:38.571Z,10.50
2022-11-09T21:19:31.305Z,10.50
2022-11-09T21:26:38.847Z,10.50
2022-11-09T21:29:52.364Z,10.40
2022-11-09T21:36:38.748Z,10.40
2022-11-09T21:39:21.388Z,10.40
2022-11-09T21:43:12.224Z,10.40
2022-11-09T21:47:10.296Z,10.40
2022-11-09T21:49:45.989Z,10.40
2022-11-09T22:00:43.936Z,10.40
2022-11-09T22:07:32.671Z,10.40
2022-11-09T22:14:39.581Z,10.40
2022-11-09T22:21:26.761Z,10.40
2022-11-09T22:24:05.231Z,10.40
2022-11-09T22:30:45.924Z,10.30
2022-11-09T22:37:32.780Z,10.30
2022-11-09T22:44:20.444Z,10.30
2022-11-09T22:47:12.456Z,10.30
2022-11-09T22:49:46.892Z,10.30
2022-11-09T22:57:03.104Z,10.20
2022-11-09T23:00:33.569Z,10.20
2022-11-09T23:03:41.337Z,10.20
2022-11-09T23:06:47.421Z,10.20
2022-11-09T23:18:04.553Z,10.10
2022-11-09T23:25:02.178Z,10.10
2022-11-09T23:28:29.249Z,10.10
2022-11-09T23:35:11.581Z,10.00
2022-11-09T23:42:15.368Z,10.00
2022-11-09T23:45:09.589Z,10.00
2022-11-09T23:48:15.539Z,9.90
2022-11-09T23:54:59.402Z,9.90
